sensor_id;sensor_type;location;lat;lon;timestamp;P1;durP1;ratioP1;P2;durP2;ratioP2
14738;SDS011;7461;52.440;13.540;2023-02-28T00:00:49;6.07;;;5.10;;
14738;SDS011;7461;52.440;13.540;2023-02-28T00:03:18;6.68;;;5.97;;
14738;SDS011;7461;52.440;13.540;2023-02-28T00:05:45;6.80;;;6.25;;
14738;SDS011;7461;52.440;13.540;2023-02-28T00:08:13;7.80;;;7.20;;
14738;SDS011;7461;52.440;13.540;2023-02-28T00:10:40;7.40;;;6.78;;
14738;SDS011;7461;52.440;13.540;2023-02-28T00:13:07;7.00;;;6.45;;
14738;SDS011;7461;52.440;13.540;2023-02-28T00:15:35;6.70;;;6.03;;
14738;SDS011;7461;52.440;13.540;2023-02-28T00:18:03;7.45;;;6.75;;
14738;SDS011;7461;52.440;13.540;2023-02-28T00:20:32;7.47;;;6.78;;
14738;SDS011;7461;52.440;13.540;2023-02-28T00:22:59;6.47;;;5.97;;
14738;SDS011;7461;52.440;13.540;2023-02-28T00:25:26;6.85;;;6.45;;
14738;SDS011;7461;52.440;13.540;2023-02-28T00:27:53;7.43;;;6.82;;
14738;SDS011;7461;52.440;13.540;2023-02-28T00:30:21;7.07;;;6.47;;
14738;SDS011;7461;52.440;13.540;2023-02-28T00:32:49;7.90;;;6.63;;
14738;SDS011;7461;52.440;13.540;2023-02-28T00:35:17;7.00;;;6.22;;
14738;SDS011;7461;52.440;13.540;2023-02-28T00:37:46;7.10;;;6.40;;
14738;SDS011;7461;52.440;13.540;2023-02-28T00:40:15;7.05;;;6.45;;
14738;SDS011;7461;52.440;13.540;2023-02-28T00:42:42;7.03;;;6.47;;
14738;SDS011;7461;52.440;13.540;2023-02-28T00:45:10;6.43;;;5.72;;
14738;SDS011;7461;52.440;13.540;2023-02-28T00:47:37;6.97;;;6.38;;
14738;SDS011;7461;52.440;13.540;2023-02-28T00:50:05;7.50;;;6.90;;
14738;SDS011;7461;52.440;13.540;2023-02-28T00:52:32;8.27;;;7.68;;
14738;SDS011;7461;52.440;13.540;2023-02-28T00:55:01;6.72;;;6.13;;
14738;SDS011;7461;52.440;13.540;2023-02-28T00:57:28;7.45;;;6.85;;
14738;SDS011;7461;52.440;13.540;2023-02-28T00:59:56;7.85;;;7.20;;
14738;SDS011;7461;52.440;13.540;2023-02-28T01:02:23;6.95;;;6.35;;
14738;SDS011;7461;52.440;13.540;2023-02-28T01:04:50;8.15;;;7.47;;
14738;SDS011;7461;52.440;13.540;2023-02-28T01:07:17;7.53;;;6.85;;
14738;SDS011;7461;52.440;13.540;2023-02-28T01:09:45;7.70;;;7.00;;
14738;SDS011;7461;52.440;13.540;2023-02-28T01:12:13;6.45;;;5.88;;
14738;SDS011;7461;52.440;13.540;2023-02-28T01:14:41;7.25;;;6.55;;
14738;SDS011;7461;52.440;13.540;2023-02-28T01:17:08;7.60;;;6.95;;
14738;SDS011;7461;52.440;13.540;2023-02-28T01:19:35;8.38;;;7.10;;
14738;SDS011;7461;52.440;13.540;2023-02-28T01:22:03;7.93;;;7.18;;
14738;SDS011;7461;52.440;13.540;2023-02-28T01:24:30;7.78;;;7.18;;
14738;SDS011;7461;52.440;13.540;2023-02-28T01:26:58;10.60;;;7.93;;
14738;SDS011;7461;52.440;13.540;2023-02-28T01:29:26;8.63;;;7.93;;
14738;SDS011;7461;52.440;13.540;2023-02-28T01:31:54;7.55;;;6.93;;
14738;SDS011;7461;52.440;13.540;2023-02-28T01:34:22;7.97;;;7.15;;
14738;SDS011;7461;52.440;13.540;2023-02-28T01:36:49;8.93;;;7.65;;
14738;SDS011;7461;52.440;13.540;2023-02-28T01:39:16;8.82;;;7.93;;
14738;SDS011;7461;52.440;13.540;2023-02-28T01:41:43;8.80;;;8.02;;
14738;SDS011;7461;52.440;13.540;2023-02-28T01:46:58;7.85;;;7.25;;
14738;SDS011;7461;52.440;13.540;2023-02-28T01:49:25;8.95;;;7.35;;
14738;SDS011;7461;52.440;13.540;2023-02-28T01:51:53;7.35;;;6.63;;
14738;SDS011;7461;52.440;13.540;2023-02-28T01:54:23;6.93;;;6.38;;
14738;SDS011;7461;52.440;13.540;2023-02-28T01:56:51;7.32;;;6.63;;
14738;SDS011;7461;52.440;13.540;2023-02-28T01:59:22;7.35;;;6.82;;
14738;SDS011;7461;52.440;13.540;2023-02-28T02:01:50;7.00;;;6.15;;
14738;SDS011;7461;52.440;13.540;2023-02-28T02:04:19;7.32;;;6.68;;
14738;SDS011;7461;52.440;13.540;2023-02-28T02:06:48;7.80;;;7.10;;
14738;SDS011;7461;52.440;13.540;2023-02-28T02:09:15;6.97;;;6.28;;
14738;SDS011;7461;52.440;13.540;2023-02-28T02:11:43;8.70;;;8.00;;
14738;SDS011;7461;52.440;13.540;2023-02-28T02:17:10;7.07;;;6.55;;
14738;SDS011;7461;52.440;13.540;2023-02-28T02:22:36;6.40;;;5.55;;
14738;SDS011;7461;52.440;13.540;2023-02-28T02:25:11;7.47;;;6.75;;
14738;SDS011;7461;52.440;13.540;2023-02-28T02:27:46;8.70;;;8.00;;
14738;SDS011;7461;52.440;13.540;2023-02-28T02:30:35;6.72;;;6.07;;
14738;SDS011;7461;52.440;13.540;2023-02-28T02:33:15;7.05;;;6.43;;
14738;SDS011;7461;52.440;13.540;2023-02-28T02:35:52;7.75;;;7.00;;
14738;SDS011;7461;52.440;13.540;2023-02-28T02:38:24;7.72;;;7.03;;
14738;SDS011;7461;52.440;13.540;2023-02-28T02:40:57;7.20;;;6.15;;
14738;SDS011;7461;52.440;13.540;2023-02-28T02:43:28;8.07;;;7.47;;
14738;SDS011;7461;52.440;13.540;2023-02-28T02:45:58;9.38;;;6.72;;
14738;SDS011;7461;52.440;13.540;2023-02-28T02:48:27;7.38;;;6.88;;
14738;SDS011;7461;52.440;13.540;2023-02-28T02:50:58;7.45;;;6.75;;
14738;SDS011;7461;52.440;13.540;2023-02-28T02:53:27;7.50;;;7.00;;
14738;SDS011;7461;52.440;13.540;2023-02-28T02:55:57;7.65;;;6.38;;
14738;SDS011;7461;52.440;13.540;2023-02-28T02:58:27;6.68;;;6.18;;
14738;SDS011;7461;52.440;13.540;2023-02-28T03:00:56;7.82;;;7.07;;
14738;SDS011;7461;52.440;13.540;2023-02-28T03:03:24;8.30;;;7.60;;
14738;SDS011;7461;52.440;13.540;2023-02-28T03:05:55;7.38;;;6.78;;
14738;SDS011;7461;52.440;13.540;2023-02-28T03:08:24;6.45;;;5.95;;
14738;SDS011;7461;52.440;13.540;2023-02-28T03:10:51;7.43;;;6.60;;
14738;SDS011;7461;52.440;13.540;2023-02-28T03:16:12;8.25;;;6.85;;
14738;SDS011;7461;52.440;13.540;2023-02-28T03:18:49;8.23;;;7.47;;
14738;SDS011;7461;52.440;13.540;2023-02-28T03:21:22;8.40;;;7.55;;
14738;SDS011;7461;52.440;13.540;2023-02-28T03:23:53;8.88;;;7.63;;
14738;SDS011;7461;52.440;13.540;2023-02-28T03:26:24;6.93;;;6.35;;
14738;SDS011;7461;52.440;13.540;2023-02-28T03:28:53;8.57;;;7.88;;
14738;SDS011;7461;52.440;13.540;2023-02-28T03:31:25;8.45;;;7.65;;
14738;SDS011;7461;52.440;13.540;2023-02-28T03:33:55;7.30;;;6.60;;
14738;SDS011;7461;52.440;13.540;2023-02-28T03:36:26;13.48;;;8.45;;
14738;SDS011;7461;52.440;13.540;2023-02-28T03:38:57;7.30;;;6.70;;
14738;SDS011;7461;52.440;13.540;2023-02-28T03:41:29;8.40;;;7.80;;
14738;SDS011;7461;52.440;13.540;2023-02-28T03:43:58;7.05;;;6.65;;
14738;SDS011;7461;52.440;13.540;2023-02-28T03:46:27;7.95;;;7.25;;
14738;SDS011;7461;52.440;13.540;2023-02-28T03:48:56;9.10;;;8.30;;
14738;SDS011;7461;52.440;13.540;2023-02-28T03:51:25;10.38;;;8.00;;
14738;SDS011;7461;52.440;13.540;2023-02-28T03:53:54;7.70;;;7.20;;
14738;SDS011;7461;52.440;13.540;2023-02-28T03:56:26;7.57;;;6.95;;
14738;SDS011;7461;52.440;13.540;2023-02-28T03:58:55;8.15;;;7.55;;
14738;SDS011;7461;52.440;13.540;2023-02-28T04:01:25;8.73;;;7.97;;
14738;SDS011;7461;52.440;13.540;2023-02-28T04:03:54;7.68;;;6.90;;
14738;SDS011;7461;52.440;13.540;2023-02-28T04:06:21;7.78;;;7.13;;
14738;SDS011;7461;52.440;13.540;2023-02-28T04:08:49;13.60;;;8.40;;
14738;SDS011;7461;52.440;13.540;2023-02-28T04:11:18;8.57;;;7.88;;
14738;SDS011;7461;52.440;13.540;2023-02-28T04:13:48;8.70;;;7.93;;
14738;SDS011;7461;52.440;13.540;2023-02-28T04:16:15;8.15;;;7.35;;
14738;SDS011;7461;52.440;13.540;2023-02-28T04:18:43;9.35;;;8.45;;
14738;SDS011;7461;52.440;13.540;2023-02-28T04:21:10;11.38;;;7.93;;
14738;SDS011;7461;52.440;13.540;2023-02-28T04:23:38;8.77;;;8.07;;
14738;SDS011;7461;52.440;13.540;2023-02-28T04:26:05;9.65;;;8.57;;
14738;SDS011;7461;52.440;13.540;2023-02-28T04:28:33;9.52;;;8.63;;
14738;SDS011;7461;52.440;13.540;2023-02-28T04:31:02;10.07;;;9.25;;
14738;SDS011;7461;52.440;13.540;2023-02-28T04:33:31;9.20;;;8.43;;
14738;SDS011;7461;52.440;13.540;2023-02-28T04:35:59;9.57;;;8.73;;
14738;SDS011;7461;52.440;13.540;2023-02-28T04:38:27;7.93;;;7.32;;
14738;SDS011;7461;52.440;13.540;2023-02-28T04:40:56;9.35;;;8.52;;
14738;SDS011;7461;52.440;13.540;2023-02-28T04:43:23;9.13;;;7.95;;
14738;SDS011;7461;52.440;13.540;2023-02-28T04:45:51;11.68;;;9.27;;
14738;SDS011;7461;52.440;13.540;2023-02-28T04:48:20;9.35;;;8.45;;
14738;SDS011;7461;52.440;13.540;2023-02-28T04:50:48;8.65;;;7.85;;
14738;SDS011;7461;52.440;13.540;2023-02-28T04:53:15;10.50;;;9.27;;
14738;SDS011;7461;52.440;13.540;2023-02-28T04:55:42;9.05;;;8.25;;
14738;SDS011;7461;52.440;13.540;2023-02-28T04:58:11;9.48;;;8.68;;
14738;SDS011;7461;52.440;13.540;2023-02-28T05:00:38;8.93;;;8.10;;
14738;SDS011;7461;52.440;13.540;2023-02-28T05:03:05;8.55;;;7.85;;
14738;SDS011;7461;52.440;13.540;2023-02-28T05:05:34;9.05;;;8.20;;
14738;SDS011;7461;52.440;13.540;2023-02-28T05:08:01;8.43;;;7.68;;
14738;SDS011;7461;52.440;13.540;2023-02-28T05:10:30;11.30;;;10.23;;
14738;SDS011;7461;52.440;13.540;2023-02-28T05:12:57;10.60;;;9.75;;
14738;SDS011;7461;52.440;13.540;2023-02-28T05:15:24;9.93;;;9.13;;
14738;SDS011;7461;52.440;13.540;2023-02-28T05:17:52;10.20;;;9.20;;
14738;SDS011;7461;52.440;13.540;2023-02-28T05:20:19;9.25;;;8.35;;
14738;SDS011;7461;52.440;13.540;2023-02-28T05:22:49;9.27;;;7.97;;
14738;SDS011;7461;52.440;13.540;2023-02-28T05:25:18;9.40;;;8.50;;
14738;SDS011;7461;52.440;13.540;2023-02-28T05:27:46;10.45;;;9.45;;
14738;SDS011;7461;52.440;13.540;2023-02-28T05:30:14;9.57;;;8.57;;
14738;SDS011;7461;52.440;13.540;2023-02-28T05:32:42;9.77;;;8.52;;
14738;SDS011;7461;52.440;13.540;2023-02-28T05:35:09;11.07;;;10.13;;
14738;SDS011;7461;52.440;13.540;2023-02-28T05:37:37;11.45;;;10.38;;
14738;SDS011;7461;52.440;13.540;2023-02-28T05:40:06;13.27;;;12.00;;
14738;SDS011;7461;52.440;13.540;2023-02-28T05:42:35;10.23;;;9.35;;
14738;SDS011;7461;52.440;13.540;2023-02-28T05:45:03;11.20;;;10.25;;
14738;SDS011;7461;52.440;13.540;2023-02-28T05:47:30;12.75;;;11.48;;
14738;SDS011;7461;52.440;13.540;2023-02-28T05:49:58;14.70;;;13.18;;
14738;SDS011;7461;52.440;13.540;2023-02-28T05:52:25;13.10;;;11.95;;
14738;SDS011;7461;52.440;13.540;2023-02-28T05:54:52;12.48;;;11.40;;
14738;SDS011;7461;52.440;13.540;2023-02-28T05:57:21;13.32;;;12.10;;
14738;SDS011;7461;52.440;13.540;2023-02-28T05:59:48;12.88;;;11.68;;
14738;SDS011;7461;52.440;13.540;2023-02-28T06:02:16;12.25;;;11.05;;
14738;SDS011;7461;52.440;13.540;2023-02-28T06:04:44;13.40;;;12.15;;
14738;SDS011;7461;52.440;13.540;2023-02-28T06:07:12;13.30;;;12.10;;
14738;SDS011;7461;52.440;13.540;2023-02-28T06:09:40;11.10;;;10.20;;
14738;SDS011;7461;52.440;13.540;2023-02-28T06:12:07;12.77;;;11.48;;
14738;SDS011;7461;52.440;13.540;2023-02-28T06:14:36;11.68;;;10.57;;
14738;SDS011;7461;52.440;13.540;2023-02-28T06:17:04;9.77;;;8.98;;
14738;SDS011;7461;52.440;13.540;2023-02-28T06:19:32;11.10;;;9.88;;
14738;SDS011;7461;52.440;13.540;2023-02-28T06:21:59;11.43;;;10.32;;
14738;SDS011;7461;52.440;13.540;2023-02-28T06:24:26;12.60;;;11.23;;
14738;SDS011;7461;52.440;13.540;2023-02-28T06:26:55;12.27;;;10.93;;
14738;SDS011;7461;52.440;13.540;2023-02-28T06:29:23;11.88;;;10.85;;
14738;SDS011;7461;52.440;13.540;2023-02-28T06:31:52;12.93;;;11.82;;
14738;SDS011;7461;52.440;13.540;2023-02-28T06:34:19;12.20;;;11.02;;
14738;SDS011;7461;52.440;13.540;2023-02-28T06:36:46;13.50;;;10.50;;
14738;SDS011;7461;52.440;13.540;2023-02-28T06:39:17;10.27;;;9.38;;
14738;SDS011;7461;52.440;13.540;2023-02-28T06:41:44;10.45;;;9.57;;
14738;SDS011;7461;52.440;13.540;2023-02-28T06:44:13;11.73;;;10.60;;
14738;SDS011;7461;52.440;13.540;2023-02-28T06:46:41;12.77;;;11.07;;
14738;SDS011;7461;52.440;13.540;2023-02-28T06:49:10;11.60;;;10.15;;
14738;SDS011;7461;52.440;13.540;2023-02-28T06:51:37;10.60;;;9.68;;
14738;SDS011;7461;52.440;13.540;2023-02-28T06:54:06;13.23;;;11.00;;
14738;SDS011;7461;52.440;13.540;2023-02-28T06:56:34;12.07;;;11.02;;
14738;SDS011;7461;52.440;13.540;2023-02-28T06:59:02;11.15;;;10.10;;
14738;SDS011;7461;52.440;13.540;2023-02-28T07:01:29;12.07;;;11.00;;
14738;SDS011;7461;52.440;13.540;2023-02-28T07:03:58;9.68;;;8.73;;
14738;SDS011;7461;52.440;13.540;2023-02-28T07:06:27;12.15;;;11.00;;
14738;SDS011;7461;52.440;13.540;2023-02-28T07:08:54;12.20;;;11.30;;
14738;SDS011;7461;52.440;13.540;2023-02-28T07:11:22;10.77;;;9.73;;
14738;SDS011;7461;52.440;13.540;2023-02-28T07:13:50;11.25;;;10.35;;
14738;SDS011;7461;52.440;13.540;2023-02-28T07:16:18;13.60;;;12.18;;
14738;SDS011;7461;52.440;13.540;2023-02-28T07:18:45;13.50;;;12.50;;
14738;SDS011;7461;52.440;13.540;2023-02-28T07:21:12;12.90;;;11.80;;
14738;SDS011;7461;52.440;13.540;2023-02-28T07:23:41;14.27;;;13.07;;
14738;SDS011;7461;52.440;13.540;2023-02-28T07:26:10;13.27;;;12.07;;
14738;SDS011;7461;52.440;13.540;2023-02-28T07:28:39;13.13;;;12.02;;
14738;SDS011;7461;52.440;13.540;2023-02-28T07:31:08;12.73;;;11.57;;
14738;SDS011;7461;52.440;13.540;2023-02-28T07:33:35;12.95;;;11.85;;
14738;SDS011;7461;52.440;13.540;2023-02-28T07:36:04;12.88;;;11.68;;
14738;SDS011;7461;52.440;13.540;2023-02-28T07:38:33;14.82;;;13.65;;
14738;SDS011;7461;52.440;13.540;2023-02-28T07:41:02;13.63;;;12.48;;
14738;SDS011;7461;52.440;13.540;2023-02-28T07:43:30;13.60;;;12.23;;
14738;SDS011;7461;52.440;13.540;2023-02-28T07:46:00;11.75;;;10.85;;
14738;SDS011;7461;52.440;13.540;2023-02-28T07:48:28;14.05;;;12.85;;
14738;SDS011;7461;52.440;13.540;2023-02-28T07:50:55;13.57;;;12.38;;
14738;SDS011;7461;52.440;13.540;2023-02-28T07:53:22;14.98;;;13.55;;
14738;SDS011;7461;52.440;13.540;2023-02-28T07:55:49;13.30;;;11.98;;
14738;SDS011;7461;52.440;13.540;2023-02-28T07:58:19;13.80;;;12.68;;
14738;SDS011;7461;52.440;13.540;2023-02-28T08:00:46;16.67;;;15.02;;
14738;SDS011;7461;52.440;13.540;2023-02-28T08:03:17;10.82;;;9.80;;
14738;SDS011;7461;52.440;13.540;2023-02-28T08:05:44;12.18;;;10.77;;
14738;SDS011;7461;52.440;13.540;2023-02-28T08:08:13;12.50;;;11.00;;
14738;SDS011;7461;52.440;13.540;2023-02-28T08:10:40;10.73;;;9.13;;
14738;SDS011;7461;52.440;13.540;2023-02-28T08:13:07;11.10;;;9.68;;
14738;SDS011;7461;52.440;13.540;2023-02-28T08:15:36;12.07;;;10.95;;
14738;SDS011;7461;52.440;13.540;2023-02-28T08:18:03;11.82;;;10.63;;
14738;SDS011;7461;52.440;13.540;2023-02-28T08:20:30;9.63;;;8.75;;
14738;SDS011;7461;52.440;13.540;2023-02-28T08:22:57;10.07;;;9.27;;
14738;SDS011;7461;52.440;13.540;2023-02-28T08:25:25;11.68;;;9.50;;
14738;SDS011;7461;52.440;13.540;2023-02-28T08:27:52;9.38;;;8.50;;
14738;SDS011;7461;52.440;13.540;2023-02-28T08:30:19;9.50;;;8.63;;
14738;SDS011;7461;52.440;13.540;2023-02-28T08:32:48;13.70;;;8.88;;
14738;SDS011;7461;52.440;13.540;2023-02-28T08:35:15;9.35;;;7.75;;
14738;SDS011;7461;52.440;13.540;2023-02-28T08:37:42;8.63;;;7.93;;
14738;SDS011;7461;52.440;13.540;2023-02-28T08:40:10;7.90;;;7.38;;
14738;SDS011;7461;52.440;13.540;2023-02-28T08:42:43;7.43;;;6.40;;
14738;SDS011;7461;52.440;13.540;2023-02-28T08:45:10;5.55;;;5.15;;
14738;SDS011;7461;52.440;13.540;2023-02-28T08:47:37;7.72;;;6.88;;
14738;SDS011;7461;52.440;13.540;2023-02-28T08:50:06;6.68;;;6.05;;
14738;SDS011;7461;52.440;13.540;2023-02-28T08:52:34;5.82;;;5.25;;
14738;SDS011;7461;52.440;13.540;2023-02-28T08:55:01;5.75;;;5.30;;
14738;SDS011;7461;52.440;13.540;2023-02-28T08:57:28;6.28;;;5.07;;
14738;SDS011;7461;52.440;13.540;2023-02-28T08:59:55;6.00;;;5.55;;
14738;SDS011;7461;52.440;13.540;2023-02-28T09:02:23;6.38;;;5.75;;
14738;SDS011;7461;52.440;13.540;2023-02-28T09:04:50;5.95;;;5.45;;
14738;SDS011;7461;52.440;13.540;2023-02-28T09:07:18;7.53;;;6.65;;
14738;SDS011;7461;52.440;13.540;2023-02-28T09:09:46;6.53;;;5.82;;
14738;SDS011;7461;52.440;13.540;2023-02-28T09:12:19;6.13;;;5.63;;
14738;SDS011;7461;52.440;13.540;2023-02-28T09:14:46;6.88;;;6.28;;
14738;SDS011;7461;52.440;13.540;2023-02-28T09:17:14;6.68;;;5.90;;
14738;SDS011;7461;52.440;13.540;2023-02-28T09:19:41;5.85;;;5.32;;
14738;SDS011;7461;52.440;13.540;2023-02-28T09:22:09;5.53;;;5.03;;
14738;SDS011;7461;52.440;13.540;2023-02-28T09:24:38;5.40;;;4.90;;
14738;SDS011;7461;52.440;13.540;2023-02-28T09:27:05;6.28;;;5.68;;
14738;SDS011;7461;52.440;13.540;2023-02-28T09:29:34;5.40;;;5.00;;
14738;SDS011;7461;52.440;13.540;2023-02-28T09:32:02;5.15;;;4.65;;
14738;SDS011;7461;52.440;13.540;2023-02-28T09:34:31;5.82;;;5.30;;
14738;SDS011;7461;52.440;13.540;2023-02-28T09:36:59;4.65;;;3.97;;
14738;SDS011;7461;52.440;13.540;2023-02-28T09:39:26;6.18;;;5.45;;
14738;SDS011;7461;52.440;13.540;2023-02-28T09:41:55;6.18;;;4.18;;
14738;SDS011;7461;52.440;13.540;2023-02-28T09:44:26;6.05;;;5.43;;
14738;SDS011;7461;52.440;13.540;2023-02-28T09:46:55;4.07;;;3.78;;
14738;SDS011;7461;52.440;13.540;2023-02-28T09:49:27;3.88;;;3.60;;
14738;SDS011;7461;52.440;13.540;2023-02-28T09:51:56;3.75;;;3.25;;
14738;SDS011;7461;52.440;13.540;2023-02-28T09:54:24;3.17;;;2.97;;
14738;SDS011;7461;52.440;13.540;2023-02-28T09:56:56;2.88;;;2.63;;
14738;SDS011;7461;52.440;13.540;2023-02-28T09:59:29;3.40;;;3.10;;
14738;SDS011;7461;52.440;13.540;2023-02-28T10:02:00;2.75;;;2.40;;
14738;SDS011;7461;52.440;13.540;2023-02-28T10:04:36;3.80;;;3.50;;
14738;SDS011;7461;52.440;13.540;2023-02-28T10:07:07;5.97;;;2.72;;
14738;SDS011;7461;52.440;13.540;2023-02-28T10:09:42;3.95;;;3.53;;
14738;SDS011;7461;52.440;13.540;2023-02-28T10:12:15;3.33;;;3.03;;
14738;SDS011;7461;52.440;13.540;2023-02-28T10:14:43;3.97;;;3.42;;
14738;SDS011;7461;52.440;13.540;2023-02-28T10:17:12;3.72;;;3.30;;
14738;SDS011;7461;52.440;13.540;2023-02-28T10:19:42;3.53;;;3.20;;
14738;SDS011;7461;52.440;13.540;2023-02-28T10:22:11;3.67;;;3.38;;
14738;SDS011;7461;52.440;13.540;2023-02-28T10:24:42;3.83;;;3.53;;
14738;SDS011;7461;52.440;13.540;2023-02-28T10:27:12;3.53;;;3.22;;
14738;SDS011;7461;52.440;13.540;2023-02-28T10:29:42;3.53;;;3.22;;
14738;SDS011;7461;52.440;13.540;2023-02-28T10:32:10;3.95;;;3.65;;
14738;SDS011;7461;52.440;13.540;2023-02-28T10:34:38;4.35;;;3.47;;
14738;SDS011;7461;52.440;13.540;2023-02-28T10:37:05;3.33;;;3.13;;
14738;SDS011;7461;52.440;13.540;2023-02-28T10:39:34;5.38;;;3.22;;
14738;SDS011;7461;52.440;13.540;2023-02-28T10:42:02;3.90;;;3.45;;
14738;SDS011;7461;52.440;13.540;2023-02-28T10:44:29;4.22;;;3.92;;
14738;SDS011;7461;52.440;13.540;2023-02-28T10:46:57;4.25;;;3.85;;
14738;SDS011;7461;52.440;13.540;2023-02-28T10:49:25;3.67;;;3.33;;
14738;SDS011;7461;52.440;13.540;2023-02-28T10:51:54;3.60;;;3.25;;
14738;SDS011;7461;52.440;13.540;2023-02-28T10:54:23;3.03;;;2.83;;
14738;SDS011;7461;52.440;13.540;2023-02-28T10:59:39;4.78;;;3.35;;
14738;SDS011;7461;52.440;13.540;2023-02-28T11:04:50;3.58;;;3.28;;
14738;SDS011;7461;52.440;13.540;2023-02-28T11:07:19;4.38;;;3.28;;
14738;SDS011;7461;52.440;13.540;2023-02-28T11:09:47;2.60;;;2.40;;
14738;SDS011;7461;52.440;13.540;2023-02-28T11:12:22;3.53;;;3.17;;
14738;SDS011;7461;52.440;13.540;2023-02-28T11:14:51;4.07;;;3.78;;
14738;SDS011;7461;52.440;13.540;2023-02-28T11:17:19;3.20;;;2.90;;
14738;SDS011;7461;52.440;13.540;2023-02-28T11:19:48;4.15;;;3.45;;
14738;SDS011;7461;52.440;13.540;2023-02-28T11:22:19;5.13;;;4.57;;
14738;SDS011;7461;52.440;13.540;2023-02-28T11:24:48;4.70;;;4.30;;
14738;SDS011;7461;52.440;13.540;2023-02-28T11:27:26;4.78;;;4.38;;
14738;SDS011;7461;52.440;13.540;2023-02-28T11:30:16;3.78;;;3.50;;
14738;SDS011;7461;52.440;13.540;2023-02-28T11:32:49;4.70;;;3.35;;
14738;SDS011;7461;52.440;13.540;2023-02-28T11:35:18;7.35;;;4.40;;
14738;SDS011;7461;52.440;13.540;2023-02-28T11:37:49;4.60;;;4.22;;
14738;SDS011;7461;52.440;13.540;2023-02-28T11:40:18;5.57;;;5.00;;
14738;SDS011;7461;52.440;13.540;2023-02-28T11:42:50;4.78;;;4.18;;
14738;SDS011;7461;52.440;13.540;2023-02-28T11:45:31;4.10;;;3.70;;
14738;SDS011;7461;52.440;13.540;2023-02-28T11:48:04;5.65;;;4.10;;
14738;SDS011;7461;52.440;13.540;2023-02-28T11:53:37;3.55;;;3.25;;
14738;SDS011;7461;52.440;13.540;2023-02-28T11:56:08;5.68;;;5.07;;
14738;SDS011;7461;52.440;13.540;2023-02-28T11:58:39;5.10;;;4.43;;
14738;SDS011;7461;52.440;13.540;2023-02-28T12:01:14;4.53;;;4.13;;
14738;SDS011;7461;52.440;13.540;2023-02-28T12:03:44;3.95;;;3.65;;
14738;SDS011;7461;52.440;13.540;2023-02-28T12:06:15;4.32;;;3.92;;
14738;SDS011;7461;52.440;13.540;2023-02-28T12:08:51;4.40;;;4.00;;
14738;SDS011;7461;52.440;13.540;2023-02-28T12:11:24;4.88;;;4.30;;
14738;SDS011;7461;52.440;13.540;2023-02-28T12:14:04;4.25;;;3.53;;
14738;SDS011;7461;52.440;13.540;2023-02-28T12:16:45;5.32;;;4.28;;
14738;SDS011;7461;52.440;13.540;2023-02-28T12:19:17;4.70;;;4.25;;
14738;SDS011;7461;52.440;13.540;2023-02-28T12:21:59;4.05;;;3.75;;
14738;SDS011;7461;52.440;13.540;2023-02-28T12:24:36;5.32;;;4.68;;
14738;SDS011;7461;52.440;13.540;2023-02-28T12:27:06;5.32;;;4.68;;
14738;SDS011;7461;52.440;13.540;2023-02-28T12:29:38;5.28;;;4.30;;
14738;SDS011;7461;52.440;13.540;2023-02-28T12:32:09;5.35;;;4.25;;
14738;SDS011;7461;52.440;13.540;2023-02-28T12:34:39;3.90;;;3.58;;
14738;SDS011;7461;52.440;13.540;2023-02-28T12:37:09;4.03;;;3.72;;
14738;SDS011;7461;52.440;13.540;2023-02-28T12:39:39;5.38;;;4.70;;
14738;SDS011;7461;52.440;13.540;2023-02-28T12:42:10;4.13;;;3.83;;
14738;SDS011;7461;52.440;13.540;2023-02-28T12:44:40;4.78;;;4.32;;
14738;SDS011;7461;52.440;13.540;2023-02-28T12:47:12;4.93;;;4.53;;
14738;SDS011;7461;52.440;13.540;2023-02-28T12:49:42;4.93;;;4.53;;
14738;SDS011;7461;52.440;13.540;2023-02-28T12:52:11;4.97;;;4.47;;
14738;SDS011;7461;52.440;13.540;2023-02-28T12:54:44;5.47;;;5.00;;
14738;SDS011;7461;52.440;13.540;2023-02-28T12:57:15;5.22;;;4.82;;
14738;SDS011;7461;52.440;13.540;2023-02-28T12:59:45;4.20;;;3.78;;
14738;SDS011;7461;52.440;13.540;2023-02-28T13:02:20;4.05;;;3.75;;
14738;SDS011;7461;52.440;13.540;2023-02-28T13:04:54;4.70;;;4.38;;
14738;SDS011;7461;52.440;13.540;2023-02-28T13:07:35;4.47;;;4.03;;
14738;SDS011;7461;52.440;13.540;2023-02-28T13:10:09;5.97;;;4.30;;
14738;SDS011;7461;52.440;13.540;2023-02-28T13:12:36;4.30;;;3.90;;
14738;SDS011;7461;52.440;13.540;2023-02-28T13:15:16;4.68;;;4.00;;
14738;SDS011;7461;52.440;13.540;2023-02-28T13:17:47;4.38;;;3.17;;
14738;SDS011;7461;52.440;13.540;2023-02-28T13:20:16;4.07;;;3.78;;
14738;SDS011;7461;52.440;13.540;2023-02-28T13:22:44;4.13;;;3.83;;
14738;SDS011;7461;52.440;13.540;2023-02-28T13:27:59;6.10;;;4.25;;
14738;SDS011;7461;52.440;13.540;2023-02-28T13:33:19;4.45;;;4.15;;
14738;SDS011;7461;52.440;13.540;2023-02-28T13:35:48;4.72;;;4.32;;
14738;SDS011;7461;52.440;13.540;2023-02-28T13:38:23;4.63;;;4.22;;
14738;SDS011;7461;52.440;13.540;2023-02-28T13:40:50;5.90;;;4.75;;
14738;SDS011;7461;52.440;13.540;2023-02-28T13:43:19;3.97;;;3.67;;
14738;SDS011;7461;52.440;13.540;2023-02-28T13:48:28;4.22;;;3.88;;
14738;SDS011;7461;52.440;13.540;2023-02-28T13:50:56;3.92;;;3.60;;
14738;SDS011;7461;52.440;13.540;2023-02-28T13:53:29;6.07;;;4.50;;
14738;SDS011;7461;52.440;13.540;2023-02-28T13:56:01;4.07;;;3.67;;
14738;SDS011;7461;52.440;13.540;2023-02-28T13:58:37;4.60;;;3.63;;
14738;SDS011;7461;52.440;13.540;2023-02-28T14:01:11;4.78;;;4.35;;
14738;SDS011;7461;52.440;13.540;2023-02-28T14:03:45;4.30;;;4.00;;
14738;SDS011;7461;52.440;13.540;2023-02-28T14:06:18;4.53;;;4.28;;
14738;SDS011;7461;52.440;13.540;2023-02-28T14:08:50;5.13;;;4.70;;
14738;SDS011;7461;52.440;13.540;2023-02-28T14:11:26;6.07;;;5.15;;
14738;SDS011;7461;52.440;13.540;2023-02-28T14:13:55;6.22;;;4.63;;
14738;SDS011;7461;52.440;13.540;2023-02-28T14:16:23;5.63;;;4.50;;
14738;SDS011;7461;52.440;13.540;2023-02-28T14:18:54;6.93;;;5.28;;
14738;SDS011;7461;52.440;13.540;2023-02-28T14:21:23;4.57;;;4.25;;
14738;SDS011;7461;52.440;13.540;2023-02-28T14:26:50;5.20;;;4.32;;
14738;SDS011;7461;52.440;13.540;2023-02-28T14:29:27;4.57;;;4.18;;
14738;SDS011;7461;52.440;13.540;2023-02-28T14:32:01;4.70;;;4.30;;
14738;SDS011;7461;52.440;13.540;2023-02-28T14:34:35;5.13;;;4.72;;
14738;SDS011;7461;52.440;13.540;2023-02-28T14:37:03;4.75;;;4.40;;
14738;SDS011;7461;52.440;13.540;2023-02-28T14:39:33;5.43;;;4.90;;
14738;SDS011;7461;52.440;13.540;2023-02-28T14:42:02;6.30;;;4.93;;
14738;SDS011;7461;52.440;13.540;2023-02-28T14:44:31;4.85;;;4.47;;
14738;SDS011;7461;52.440;13.540;2023-02-28T14:46:59;6.07;;;5.47;;
14738;SDS011;7461;52.440;13.540;2023-02-28T14:49:31;5.20;;;4.72;;
14738;SDS011;7461;52.440;13.540;2023-02-28T14:52:03;5.20;;;4.80;;
14738;SDS011;7461;52.440;13.540;2023-02-28T14:54:34;4.97;;;4.47;;
14738;SDS011;7461;52.440;13.540;2023-02-28T15:00:11;5.18;;;4.75;;
14738;SDS011;7461;52.440;13.540;2023-02-28T15:02:40;4.80;;;4.43;;
14738;SDS011;7461;52.440;13.540;2023-02-28T15:05:24;5.57;;;5.25;;
14738;SDS011;7461;52.440;13.540;2023-02-28T15:08:00;6.28;;;5.68;;
14738;SDS011;7461;52.440;13.540;2023-02-28T15:10:28;5.20;;;4.55;;
14738;SDS011;7461;52.440;13.540;2023-02-28T15:12:56;6.95;;;5.60;;
14738;SDS011;7461;52.440;13.540;2023-02-28T15:15:25;5.30;;;4.80;;
14738;SDS011;7461;52.440;13.540;2023-02-28T15:17:54;5.28;;;4.85;;
14738;SDS011;7461;52.440;13.540;2023-02-28T15:20:24;4.25;;;3.95;;
14738;SDS011;7461;52.440;13.540;2023-02-28T15:22:51;4.70;;;4.30;;
14738;SDS011;7461;52.440;13.540;2023-02-28T15:25:20;7.78;;;5.22;;
14738;SDS011;7461;52.440;13.540;2023-02-28T15:30:55;4.93;;;4.53;;
14738;SDS011;7461;52.440;13.540;2023-02-28T15:33:22;5.13;;;4.72;;